Time;durP1;ratioP1;P1;durP2;ratioP2;P2;SDS_P1;SDS_P2;PMS_P1;PMS_P2;Temp;Humidity;BMP_temperature;BMP_pressure;BME280_temperature;BME280_humidity;BME280_pressure;Samples;Min_cycle;Max_cycle;Signal;HPM_P1;HPM_P2
2023/06/14 00:02:22;;;;;;;10.32;6.82;;;;;;;15.27;100.00;97183.38;10406113;28;20036;-55
2023/06/14 00:07:34;;;;;;;11.57;6.97;;;;;;;16.51;100.00;97370.69;10406468;28;20082;-54
2023/06/14 00:12:33;;;;;;;11.27;6.63;;;;;;;16.58;100.00;97374.84;10414590;28;20463;-54
2023/06/14 00:17:33;;;;;;;12.73;6.53;;;;;;;16.51;100.00;97371.59;10406524;28;20580;-54
2023/06/14 00:22:32;;;;;;;12.10;6.88;;;;;;;16.55;100.00;97371.47;10413570;28;20119;-54
2023/06/14 00:27:31;;;;;;;10.50;5.95;;;;;;;16.58;100.00;97371.38;10407126;28;20021;-54
2023/06/14 00:32:30;;;;;;;10.60;6.47;;;;;;;16.28;100.00;97329.53;10405420;28;20040;-54
2023/06/14 00:37:29;;;;;;;14.93;6.88;;;;;;;16.47;100.00;97367.34;10405550;28;20035;-54
2023/06/14 00:42:28;;;;;;;16.33;9.05;;;;;;;16.40;100.00;97360.56;10405439;28;20055;-54
2023/06/14 00:47:27;;;;;;;17.60;9.40;;;;;;;15.91;100.00;97329.78;10407563;28;21146;-54
2023/06/14 00:52:27;;;;;;;15.40;9.48;;;;;;;15.94;100.00;97359.31;10412301;28;20036;-55
2023/06/14 00:57:27;;;;;;;14.48;8.63;;;;;;;15.94;100.00;97353.22;10412355;28;20082;-54
2023/06/14 01:02:26;;;;;;;17.77;9.05;;;;;;;15.91;100.00;97354.19;10424763;28;20079;-54
2023/06/14 01:07:37;;;;;;;15.80;9.15;;;;;;;15.95;100.00;97360.16;10412750;28;20120;-54
2023/06/14 01:12:48;;;;;;;18.77;9.70;;;;;;;15.41;100.00;97302.38;10420960;28;20116;-54
2023/06/14 01:17:51;;;;;;;21.60;9.48;;;;;;;15.77;100.00;97361.53;10420165;28;20487;-55
2023/06/14 01:22:52;;;;;;;16.60;9.43;;;;;;;15.70;100.00;97354.75;10413137;28;20111;-54
2023/06/14 01:28:03;;;;;;;17.85;10.07;;;;;;;15.42;100.00;97326.75;10421575;28;20059;-54
2023/06/14 01:33:04;;;;;;;20.25;9.70;;;;;;;15.53;100.00;97358.69;10411393;28;20064;-54
2023/06/14 01:38:05;;;;;;;19.55;10.40;;;;;;;15.33;100.00;97320.00;10411867;28;20060;-54
2023/06/14 01:43:05;;;;;;;17.40;10.15;;;;;;;15.44;100.00;97343.25;10409414;28;20071;-54
2023/06/14 01:48:05;;;;;;;22.30;10.40;;;;;;;15.40;100.00;97352.94;10418180;28;20068;-54
2023/06/14 01:53:08;;;;;;;20.90;10.25;;;;;;;15.45;100.00;97353.66;10417718;28;20126;-55
2023/06/14 01:58:07;;;;;;;19.10;10.50;;;;;;;15.35;100.00;97356.56;10418885;28;20123;-54
2023/06/14 02:03:05;;;;;;;23.08;10.55;;;;;;;15.50;100.00;97348.28;10410962;28;20035;-54
2023/06/14 02:08:05;;;;;;;21.42;10.85;;;;;;;15.46;100.00;97324.00;10409798;28;20024;-54
2023/06/14 02:13:04;;;;;;;21.95;11.00;;;;;;;15.67;100.00;97358.31;10410294;28;20112;-54
2023/06/14 02:18:03;;;;;;;29.35;11.32;;;;;;;13.89;100.00;97105.22;10409666;28;20028;-54
2023/06/14 02:23:02;;;;;;;28.25;12.15;;;;;;;14.79;100.00;97282.22;10409423;28;20067;-54
2023/06/14 02:28:01;;;;;;;24.05;12.57;;;;;;;15.17;100.00;97373.59;10408466;28;20037;-54
2023/06/14 02:33:00;;;;;;;27.30;13.07;;;;;;;15.00;100.00;97358.34;10410073;28;20088;-54
2023/06/14 02:37:59;;;;;;;32.45;13.68;;;;;;;15.13;100.00;97370.22;10409430;28;20337;-54
2023/06/14 02:42:58;;;;;;;;;;;;;;;15.08;100.00;97379.88;10411881;28;20041;-54
2023/06/14 02:47:57;;;;;;;28.53;13.77;;;;;;;14.94;100.00;97380.22;10417471;28;19930;-54
2023/06/14 02:52:56;;;;;;;29.25;14.13;;;;;;;14.94;100.00;97384.59;10421972;28;20533;-54
2023/06/14 02:57:55;;;;;;;31.15;13.73;;;;;;;15.04;100.00;97378.28;10411321;28;20068;-54
2023/06/14 03:02:54;;;;;;;31.05;13.70;;;;;;;14.92;100.00;97365.50;10411663;28;20119;-54
2023/06/14 03:07:53;;;;;;;;;;;;;;;15.11;100.00;97390.28;10412028;28;20131;-54
2023/06/14 03:12:53;;;;;;;33.47;13.93;;;;;;;15.06;100.00;97397.38;10411055;28;19955;-54
2023/06/14 03:17:53;;;;;;;33.38;14.38;;;;;;;15.00;100.00;97400.13;10410701;28;20044;-53
2023/06/14 03:22:54;;;;;;;38.10;15.55;;;;;;;15.10;100.00;97396.41;10411711;28;20063;-54
2023/06/14 03:27:53;;;;;;;35.22;15.43;;;;;;;15.18;100.00;97397.06;10410625;28;20043;-54
2023/06/14 03:32:52;;;;;;;36.10;14.93;;;;;;;15.24;100.00;97399.50;10410336;28;20115;-53
2023/06/14 03:37:51;;;;;;;30.60;13.93;;;;;;;14.97;100.00;97355.81;10410642;28;20055;-54
2023/06/14 03:42:50;;;;;;;34.75;14.60;;;;;;;15.23;100.00;97407.41;10411334;28;20115;-53
2023/06/14 03:47:50;;;;;;;35.63;13.88;;;;;;;15.28;100.00;97409.91;10407953;28;20039;-53
2023/06/14 03:52:50;;;;;;;33.47;13.75;;;;;;;15.44;100.00;97408.63;10413006;28;20056;-53
2023/06/14 03:57:49;;;;;;;33.10;13.27;;;;;;;15.43;100.00;97419.97;10407303;28;20167;-53
2023/06/14 04:02:48;;;;;;;29.52;13.77;;;;;;;15.41;100.00;97419.13;10410631;28;20044;-53
2023/06/14 04:07:48;;;;;;;;;;;;;;;15.35;100.00;97414.09;10407060;28;20107;-53
2023/06/14 04:12:47;;;;;;;27.65;12.27;;;;;;;15.25;100.00;97413.47;10405930;28;19984;-53
2023/06/14 04:17:46;;;;;;;28.25;12.55;;;;;;;15.30;100.00;97414.22;10407755;28;20064;-53
2023/06/14 04:22:45;;;;;;;24.70;12.45;;;;;;;15.22;100.00;97414.41;10404979;28;20048;-54
2023/06/14 04:27:44;;;;;;;27.13;12.95;;;;;;;15.26;100.00;97417.78;10409361;28;20028;-54
2023/06/14 04:32:43;;;;;;;25.40;12.52;;;;;;;15.26;100.00;97430.84;10414191;28;20099;-53
2023/06/14 04:37:43;;;;;;;25.88;12.50;;;;;;;15.43;100.00;97433.03;10413369;28;20139;-53
2023/06/14 04:42:46;;;;;;;24.63;11.23;;;;;;;15.50;100.00;97437.22;10413171;28;20055;-53
2023/06/14 04:47:46;;;;;;;21.58;11.10;;;;;;;15.61;100.00;97435.19;10412908;28;20056;-53
2023/06/14 04:52:44;;;;;;;16.80;10.48;;;;;;;15.87;100.00;97436.28;10432314;28;20067;-53
2023/06/14 04:57:43;;;;;;;19.20;9.93;;;;;;;15.79;100.00;97396.41;10415733;28;20053;-53
2023/06/14 05:02:42;;;;;;;19.88;9.75;;;;;;;16.21;100.00;97444.06;10411964;28;20111;-53
2023/06/14 05:07:41;;;;;;;15.85;9.57;;;;;;;16.25;100.00;97434.34;10431254;28;20028;-53
2023/06/14 05:12:43;;;;;;;17.10;10.00;;;;;;;16.40;100.00;97443.53;10437534;28;20415;-54
2023/06/14 05:17:42;;;;;;;16.83;9.75;;;;;;;16.51;100.00;97429.22;10411401;28;20538;-53
2023/06/14 05:22:41;;;;;;;17.17;9.80;;;;;;;17.00;100.00;97452.19;10412264;28;20055;-53
2023/06/14 05:27:41;;;;;;;12.05;8.00;;;;;;;17.46;100.00;97450.72;10436601;28;20446;-53
2023/06/14 05:32:41;;;;;;;11.63;7.30;;;;;;;17.52;100.00;97456.63;10417314;28;20546;-54
2023/06/14 05:37:40;;;;;;;12.32;7.07;;;;;;;17.69;100.00;97413.19;10410909;28;20478;-53
2023/06/14 05:42:39;;;;;;;10.02;5.60;;;;;;;18.28;100.00;97446.13;10435910;28;20516;-54
2023/06/14 05:47:38;;;;;;;7.50;4.22;;;;;;;18.48;100.00;97453.25;10431737;28;20115;-54
2023/06/14 05:52:37;;;;;;;7.07;5.00;;;;;;;18.46;100.00;97449.84;10432205;28;20131;-54
2023/06/14 05:57:36;;;;;;;5.68;3.78;;;;;;;18.38;100.00;97463.25;10411427;28;20032;-54
2023/06/14 06:02:35;;;;;;;9.70;4.90;;;;;;;18.52;100.00;97453.06;10391692;28;20601;-54
2023/06/14 06:07:34;;;;;;;6.40;4.10;;;;;;;19.02;100.00;97455.56;10404050;28;20029;-54
2023/06/14 06:12:33;;;;;;;5.50;3.35;;;;;;;19.17;99.86;97453.22;10427153;28;20155;-54
2023/06/14 06:17:32;;;;;;;5.80;3.50;;;;;;;19.25;100.00;97456.38;10413741;28;20035;-54
2023/06/14 06:22:31;;;;;;;6.45;3.42;;;;;;;19.44;100.00;97454.75;10408115;28;20028;-54
2023/06/14 06:27:30;;;;;;;6.25;3.53;;;;;;;19.56;98.17;97466.56;10408554;28;20024;-54
2023/06/14 06:32:29;;;;;;;5.28;3.17;;;;;;;19.60;95.73;97456.75;10412091;28;20066;-54
2023/06/14 06:37:28;;;;;;;4.82;2.80;;;;;;;19.74;100.00;97472.81;10408609;28;20124;-54
2023/06/14 06:59:13;;;;;;;3.03;2.45;;;;;;;20.05;94.97;97476.78;10451581;27;20409;-52
2023/06/14 07:04:13;;;;;;;3.22;2.85;;;;;;;20.21;91.89;97480.47;10418558;28;20052;-50
2023/06/14 07:09:14;;;;;;;4.43;2.50;;;;;;;20.47;95.61;97487.22;10407866;28;20056;-51
2023/06/14 07:14:13;;;;;;;5.05;3.00;;;;;;;20.78;94.56;97485.81;10434430;28;20044;-52
2023/06/14 07:19:12;;;;;;;4.82;2.90;;;;;;;21.05;94.67;97475.72;10421653;28;20025;-52
2023/06/14 07:24:11;;;;;;;5.60;3.00;;;;;;;21.39;91.76;97474.16;10416603;28;20031;-52
2023/06/14 07:29:10;;;;;;;4.68;3.90;;;;;;;21.71;85.97;97467.28;10409738;28;20067;-51
2023/06/14 07:34:09;;;;;;;5.68;4.30;;;;;;;22.05;85.41;97486.69;10423254;28;20060;-51
2023/06/14 07:39:09;;;;;;;6.95;4.28;;;;;;;22.41;82.26;97477.75;10408138;28;21011;-50
2023/06/14 07:44:08;;;;;;;7.57;4.20;;;;;;;22.47;79.17;97479.25;10407562;28;20455;-51
2023/06/14 07:49:07;;;;;;;6.75;4.18;;;;;;;22.69;83.76;97471.00;10409881;28;20572;-52
2023/06/14 07:54:08;;;;;;;7.85;4.38;;;;;;;23.02;76.49;97471.81;10404766;28;20461;-49
2023/06/14 07:59:07;;;;;;;7.57;4.07;;;;;;;22.97;76.55;97465.06;10389126;28;20467;-51
2023/06/14 08:04:06;;;;;;;6.72;4.47;;;;;;;22.87;78.25;97475.31;10390494;28;20067;-51
2023/06/14 08:09:05;;;;;;;6.90;4.32;;;;;;;23.04;74.91;97487.59;10419771;28;20127;-52
2023/06/14 08:14:04;;;;;;;7.38;4.05;;;;;;;22.85;80.79;97456.00;10396457;28;20052;-51
2023/06/14 08:19:03;;;;;;;7.40;4.45;;;;;;;23.23;76.82;97487.41;10385092;28;20432;-52
2023/06/14 08:24:03;;;;;;;6.28;4.05;;;;;;;22.91;71.38;97502.47;10397793;28;20430;-50
2023/06/14 08:29:02;;;;;;;6.53;4.72;;;;;;;22.70;69.41;97494.72;10382600;28;20071;-51
2023/06/14 08:34:01;;;;;;;10.25;5.53;;;;;;;22.65;72.35;97491.47;10390672;28;20059;-50
2023/06/14 08:39:00;;;;;;;5.35;4.55;;;;;;;22.86;69.33;97501.84;10362435;28;20067;-52
2023/06/14 08:43:59;;;;;;;7.13;5.20;;;;;;;22.84;68.57;97474.63;10399172;28;20048;-49
2023/06/14 08:48:59;;;;;;;5.78;4.70;;;;;;;23.34;69.84;97500.91;10359840;28;20140;-51
2023/06/14 08:53:58;;;;;;;8.43;5.22;;;;;;;23.72;69.79;97494.38;10365693;28;20071;-52
2023/06/14 08:59:02;;;;;;;8.25;4.68;;;;;;;24.04;67.13;97490.69;10394701;28;20106;-50
2023/06/14 09:04:02;;;;;;;7.80;5.55;;;;;;;24.14;70.79;97447.72;10366722;28;20471;-52
2023/06/14 09:09:02;;;;;;;6.82;4.90;;;;;;;24.24;65.79;97491.34;10377699;28;20483;-51
2023/06/14 09:14:01;;;;;;;10.55;5.85;;;;;;;23.45;67.12;97487.06;10390566;28;20067;-50
2023/06/14 09:19:00;;;;;;;10.15;6.07;;;;;;;22.46;69.37;97480.16;10375435;28;20060;-50
2023/06/14 09:24:00;;;;;;;8.90;6.20;;;;;;;22.43;73.84;97488.25;10374523;28;20032;-52
2023/06/14 09:28:59;;;;;;;8.50;5.97;;;;;;;22.84;75.96;97486.06;10375153;28;20060;-51
2023/06/14 09:34:02;;;;;;;8.45;6.20;;;;;;;23.35;71.88;97481.44;10374604;28;20063;-49
2023/06/14 09:39:07;;;;;;;8.10;6.60;;;;;;;23.20;74.27;97458.47;10374382;28;20063;-51
2023/06/14 09:44:08;;;;;;;9.35;6.57;;;;;;;23.25;70.45;97426.44;10374300;28;20059;-52
2023/06/14 09:49:07;;;;;;;10.43;5.93;;;;;;;23.50;69.60;97463.84;10373784;28;20052;-51
2023/06/14 09:54:06;;;;;;;8.02;6.20;;;;;;;23.61;68.61;97456.13;10374016;28;20071;-52
2023/06/14 09:59:08;;;;;;;9.05;6.53;;;;;;;23.19;69.24;97462.94;10372620;28;20064;-51
2023/06/14 10:04:09;;;;;;;9.63;7.85;;;;;;;22.87;69.96;97426.84;10376882;28;20060;-52
2023/06/14 10:09:10;;;;;;;9.05;7.13;;;;;;;23.35;69.99;97452.31;10344732;28;20112;-50
2023/06/14 10:14:10;;;;;;;10.05;7.38;;;;;;;23.97;71.67;97451.38;10365637;28;20531;-50
2023/06/14 10:19:20;;;;;;;11.10;6.75;;;;;;;24.36;62.94;97455.25;10374920;28;20057;-49
2023/06/14 10:24:24;;;;;;;8.38;6.05;;;;;;;24.59;62.99;97454.69;10378066;28;20064;-51
2023/06/14 10:29:23;;;;;;;8.80;7.00;;;;;;;23.99;63.90;97445.03;10356350;28;20843;-52
2023/06/14 10:34:27;;;;;;;6.70;5.90;;;;;;;23.63;63.34;97448.94;10392483;28;20441;-52
2023/06/14 10:39:27;;;;;;;8.77;6.85;;;;;;;23.76;64.32;97432.31;10398894;28;20067;-51
2023/06/14 10:44:28;;;;;;;10.45;6.47;;;;;;;23.84;64.08;97438.00;10385621;28;20064;-49
2023/06/14 10:49:42;;;;;;;7.88;6.57;;;;;;;23.62;62.40;97436.63;10372467;28;20072;-49
2023/06/14 10:55:09;;;;;;;8.30;6.53;;;;;;;23.49;62.17;97388.00;10393224;28;20068;-52
2023/06/14 11:00:13;;;;;;;9.95;6.30;;;;;;;24.00;64.29;97417.59;10359162;28;20060;-50
2023/06/14 11:05:15;;;;;;;7.70;6.75;;;;;;;24.75;63.33;97406.78;10373392;28;20499;-49
2023/06/14 11:10:23;;;;;;;8.45;5.18;;;;;;;25.03;61.13;97395.25;10369148;28;20064;-51
2023/06/14 11:15:33;;;;;;;7.75;5.50;;;;;;;24.68;60.12;97394.84;10342995;28;20120;-52
2023/06/14 11:20:35;;;;;;;8.35;5.22;;;;;;;24.58;60.24;97391.94;10367929;28;20095;-50
2023/06/14 11:25:34;;;;;;;7.25;5.30;;;;;;;24.51;60.07;97408.34;10370457;28;20059;-51
2023/06/14 11:30:33;;;;;;;8.75;5.40;;;;;;;24.36;60.94;97371.22;10373037;28;20029;-50
2023/06/14 11:35:33;;;;;;;7.63;4.78;;;;;;;24.34;59.81;97389.03;10377820;28;20115;-51
2023/06/14 11:40:32;;;;;;;6.45;4.72;;;;;;;24.28;60.52;97392.06;10393559;28;20068;-52
2023/06/14 11:45:31;;;;;;;6.05;4.28;;;;;;;24.39;61.57;97386.09;10385293;28;20029;-50
2023/06/14 11:50:30;;;;;;;10.18;4.75;;;;;;;24.45;60.42;97372.44;10381956;28;20060;-51
2023/06/14 11:55:29;;;;;;;6.25;4.72;;;;;;;24.62;60.87;97368.72;10383726;28;20044;-52
2023/06/14 12:00:28;;;;;;;5.75;4.45;;;;;;;24.69;59.34;97378.00;10383589;28;20056;-52
2023/06/14 12:05:28;;;;;;;7.53;4.93;;;;;;;24.49;59.43;97347.41;10379405;28;20074;-52
2023/06/14 12:10:28;;;;;;;5.97;4.97;;;;;;;24.35;60.42;97360.72;10378618;28;20468;-52
2023/06/14 12:15:31;;;;;;;6.68;5.20;;;;;;;24.37;59.85;97338.44;10379385;28;20048;-51
2023/06/14 12:20:31;;;;;;;5.50;4.22;;;;;;;24.46;61.51;97363.53;10382223;28;20064;-52
2023/06/14 12:25:32;;;;;;;6.88;4.68;;;;;;;24.12;61.74;97370.06;10378626;28;20056;-52
2023/06/14 12:30:32;;;;;;;6.07;5.15;;;;;;;23.82;61.78;97349.81;10378919;28;20071;-50
2023/06/14 12:35:30;;;;;;;6.95;4.55;;;;;;;23.88;61.25;97352.09;10372856;28;20044;-51
2023/06/14 12:40:29;;;;;;;6.88;5.00;;;;;;;23.97;62.80;97353.31;10377751;28;20041;-52
2023/06/14 12:45:28;;;;;;;6.60;5.50;;;;;;;23.99;63.27;97360.22;10378110;28;20066;-51
2023/06/14 12:50:27;;;;;;;8.68;5.65;;;;;;;24.20;62.33;97349.28;10381874;28;20034;-52
2023/06/14 12:55:26;;;;;;;9.73;5.93;;;;;;;24.37;61.32;97337.59;10358693;28;20072;-53
2023/06/14 13:00:26;;;;;;;6.72;5.43;;;;;;;24.49;61.19;97337.66;10371558;28;20127;-53
2023/06/14 13:05:25;;;;;;;8.30;6.10;;;;;;;24.21;61.88;97316.50;10387098;28;20053;-51
2023/06/14 13:10:25;;;;;;;6.93;6.03;;;;;;;24.15;64.05;97327.47;10379031;28;20161;-52
2023/06/14 13:15:24;;;;;;;9.35;6.63;;;;;;;24.17;64.34;97297.28;10387116;28;20060;-52
2023/06/14 13:20:23;;;;;;;8.98;6.82;;;;;;;24.35;67.19;97327.09;10375667;28;20056;-50
2023/06/14 13:25:22;;;;;;;8.30;6.50;;;;;;;24.47;65.97;97334.28;10388054;28;20024;-52
2023/06/14 13:30:21;;;;;;;9.93;7.20;;;;;;;24.57;66.40;97328.38;10369244;28;20055;-52
2023/06/14 13:35:20;;;;;;;8.40;6.25;;;;;;;24.61;63.19;97327.22;10383428;28;20048;-52
2023/06/14 13:40:19;;;;;;;7.97;5.38;;;;;;;24.14;63.40;97326.59;10383515;28;20033;-50
2023/06/14 13:45:18;;;;;;;9.07;5.78;;;;;;;24.00;66.16;97324.81;10394497;28;20029;-52
2023/06/14 13:50:17;;;;;;;7.45;5.90;;;;;;;23.85;64.83;97331.94;10373350;28;20036;-52
2023/06/14 13:55:16;;;;;;;10.43;5.90;;;;;;;23.75;63.48;97332.59;10382027;28;20029;-53
2023/06/14 14:00:16;;;;;;;8.63;6.43;;;;;;;23.72;65.23;97320.38;10414163;28;20067;-49
2023/06/14 14:05:15;;;;;;;9.70;6.10;;;;;;;23.80;64.76;97326.06;10413840;28;20052;-52
2023/06/14 14:10:14;;;;;;;7.00;5.72;;;;;;;23.51;65.89;97332.28;10413728;28;20040;-51
2023/06/14 14:15:14;;;;;;;15.55;7.10;;;;;;;23.40;66.95;97330.25;10389960;28;20119;-52
2023/06/14 14:20:15;;;;;;;11.85;6.70;;;;;;;23.39;66.46;97333.81;10373285;28;20079;-52
2023/06/14 14:25:14;;;;;;;9.48;6.20;;;;;;;22.67;67.28;97354.72;10352977;28;20072;-52
2023/06/14 14:30:14;;;;;;;9.93;6.60;;;;;;;22.33;68.67;97347.78;10372522;28;20068;-53
2023/06/14 14:35:13;;;;;;;9.73;6.15;;;;;;;21.97;70.57;97328.53;10371727;28;20061;-50
2023/06/14 14:40:12;;;;;;;9.07;6.85;;;;;;;21.81;72.32;97342.66;10375822;28;20471;-51
2023/06/14 14:45:11;;;;;;;14.18;7.78;;;;;;;21.67;74.48;97340.75;10394467;28;20080;-51
2023/06/14 14:50:10;;;;;;;12.23;6.90;;;;;;;21.72;74.88;97347.47;10380354;28;20112;-52
2023/06/14 14:55:09;;;;;;;10.55;6.65;;;;;;;21.25;76.00;97307.72;10372074;28;20111;-52
2023/06/14 15:00:09;;;;;;;12.73;7.30;;;;;;;21.31;76.36;97362.81;10371309;28;20064;-50
2023/06/14 15:05:08;;;;;;;12.90;7.38;;;;;;;21.14;78.00;97367.09;10371690;28;20057;-51
2023/06/14 15:10:08;;;;;;;9.05;5.65;;;;;;;20.96;79.57;97357.50;10379109;28;20079;-49
2023/06/14 15:15:09;;;;;;;8.18;6.38;;;;;;;20.20;83.69;97335.59;10387218;28;20067;-50
2023/06/14 15:20:08;;;;;;;9.40;7.28;;;;;;;20.04;86.34;97403.94;10400440;28;20064;-51
2023/06/14 15:25:07;;;;;;;12.15;9.43;;;;;;;19.70;91.59;97410.69;10392099;28;20064;-52
2023/06/14 15:30:07;;;;;;;11.85;8.20;;;;;;;19.56;93.71;97423.59;10378974;28;20065;-52
2023/06/14 15:35:06;;;;;;;11.82;8.48;;;;;;;19.58;95.69;97422.63;10387555;28;20459;-49
2023/06/14 15:40:08;;;;;;;13.27;9.07;;;;;;;19.69;97.55;97431.81;10378559;28;20535;-51
2023/06/14 15:45:07;;;;;;;13.40;10.02;;;;;;;19.71;98.22;97449.25;10371149;28;20060;-50
2023/06/14 15:50:09;;;;;;;18.13;11.48;;;;;;;19.83;99.38;97456.63;10368663;28;20071;-52
2023/06/14 15:55:08;;;;;;;17.30;11.32;;;;;;;19.93;100.00;97464.13;10375268;28;20127;-50
2023/06/14 16:00:08;;;;;;;14.82;10.43;;;;;;;19.98;100.00;97472.72;10387070;28;20068;-49
2023/06/14 16:05:07;;;;;;;15.70;11.23;;;;;;;20.00;100.00;97474.34;10373772;28;20115;-51
2023/06/14 16:10:06;;;;;;;19.67;11.98;;;;;;;19.98;100.00;97472.72;10371933;28;20405;-51
2023/06/14 16:15:05;;;;;;;18.70;11.73;;;;;;;19.85;100.00;97451.28;10371033;28;20116;-52
2023/06/14 16:20:05;;;;;;;18.33;11.75;;;;;;;20.01;100.00;97472.56;10368055;28;20112;-51
2023/06/14 16:25:06;;;;;;;18.63;11.02;;;;;;;20.03;100.00;97471.56;10371082;28;20044;-49
2023/06/14 16:30:06;;;;;;;16.10;10.98;;;;;;;20.08;100.00;97468.72;10367775;28;20466;-51
2023/06/14 16:35:05;;;;;;;19.83;11.80;;;;;;;20.03;100.00;97470.72;10370273;28;20146;-52
2023/06/14 16:40:05;;;;;;;17.63;12.07;;;;;;;20.04;100.00;97496.13;10369511;28;20052;-49
2023/06/14 16:45:05;;;;;;;19.45;13.20;;;;;;;20.02;100.00;97490.06;10371061;28;20471;-51
2023/06/14 16:50:04;;;;;;;22.13;14.85;;;;;;;19.93;100.00;97491.34;10370456;28;20072;-50
2023/06/14 16:55:04;;;;;;;20.33;14.73;;;;;;;19.85;100.00;97481.13;10369435;28;20144;-51
2023/06/14 17:00:03;;;;;;;21.33;11.95;;;;;;;19.71;100.00;97472.94;10368131;28;20112;-52
2023/06/14 17:05:02;;;;;;;14.35;7.78;;;;;;;19.53;100.00;97471.91;10368300;28;20064;-50
2023/06/14 17:10:01;;;;;;;11.27;6.88;;;;;;;19.19;100.00;97446.97;10367221;28;20108;-51
2023/06/14 17:15:02;;;;;;;7.05;4.63;;;;;;;19.35;100.00;97473.53;10369185;28;20096;-53
2023/06/14 17:20:01;;;;;;;9.48;5.35;;;;;;;19.18;99.71;97460.19;10368304;28;20565;-51
2023/06/14 17:25:00;;;;;;;7.82;5.13;;;;;;;19.00;100.00;97452.13;10368631;28;20067;-51
2023/06/14 17:30:00;;;;;;;9.20;5.38;;;;;;;18.81;100.00;97456.41;10367321;28;20065;-50
2023/06/14 17:34:59;;;;;;;11.25;6.35;;;;;;;18.72;100.00;97472.53;10368788;28;20466;-50
2023/06/14 17:39:57;;;;;;;8.82;4.65;;;;;;;18.57;100.00;97469.53;10367113;28;20102;-49
2023/06/14 17:44:57;;;;;;;5.57;3.72;;;;;;;18.32;100.00;97479.25;10313082;28;20465;-50
2023/06/14 17:49:56;;;;;;;7.72;3.90;;;;;;;18.27;100.00;97484.66;10284685;28;20271;-51
2023/06/14 17:54:55;;;;;;;6.35;3.22;;;;;;;18.28;100.00;97496.03;10291005;28;20145;-51
2023/06/14 17:59:55;;;;;;;6.28;3.22;;;;;;;18.12;100.00;97474.69;10317080;28;20126;-51
2023/06/14 18:04:54;;;;;;;9.40;3.90;;;;;;;18.16;99.06;97500.81;10285031;28;20547;-48
2023/06/14 18:09:53;;;;;;;7.38;3.63;;;;;;;17.69;99.37;97458.66;10285315;28;20096;-51
2023/06/14 18:14:52;;;;;;;7.97;3.90;;;;;;;17.90;99.78;97503.50;10285450;28;20057;-52
2023/06/14 18:19:51;;;;;;;9.95;6.15;;;;;;;17.94;98.72;97508.59;10285040;28;20028;-49
2023/06/14 18:24:50;;;;;;;8.90;5.13;;;;;;;17.72;99.09;97511.03;10285215;28;20153;-49
2023/06/14 18:29:49;;;;;;;8.45;5.70;;;;;;;16.82;100.00;97365.41;10284328;28;20116;-50
2023/06/14 18:34:49;;;;;;;6.38;4.80;;;;;;;17.62;100.00;97509.63;10283863;28;20144;-51
2023/06/14 18:39:48;;;;;;;9.52;6.43;;;;;;;17.58;99.95;97523.75;10283461;28;20057;-50
2023/06/14 18:44:47;;;;;;;9.23;6.10;;;;;;;17.59;100.00;97538.63;10284450;28;20033;-51
2023/06/14 18:49:45;;;;;;;11.55;6.13;;;;;;;17.67;100.00;97548.84;10282738;28;20105;-50
2023/06/14 18:54:45;;;;;;;11.65;7.38;;;;;;;17.68;100.00;97548.81;10283289;28;20054;-49
2023/06/14 18:59:44;;;;;;;15.73;7.55;;;;;;;17.72;100.00;97553.03;10284254;28;20507;-51
2023/06/14 19:04:43;;;;;;;10.70;6.07;;;;;;;17.73;100.00;97562.63;10284305;28;20485;-50
2023/06/14 19:09:42;;;;;;;11.75;6.78;;;;;;;17.65;100.00;97535.75;10283686;28;20186;-51
2023/06/14 19:14:41;;;;;;;11.82;6.68;;;;;;;17.78;100.00;97552.00;10283982;28;20041;-50
2023/06/14 19:19:40;;;;;;;12.20;7.13;;;;;;;17.86;100.00;97564.88;10283719;28;20030;-49
2023/06/14 19:24:39;;;;;;;16.30;8.95;;;;;;;17.88;100.00;97568.31;10282577;28;20492;-50
2023/06/14 19:29:38;;;;;;;16.25;9.15;;;;;;;17.86;100.00;97568.34;10283652;28;20117;-50
2023/06/14 19:34:42;;;;;;;13.27;8.95;;;;;;;17.83;100.00;97565.00;10282304;28;20125;-50
2023/06/14 19:39:41;;;;;;;13.98;8.70;;;;;;;17.77;100.00;97568.66;10282801;28;20053;-51
2023/06/14 19:44:40;;;;;;;16.15;8.70;;;;;;;17.69;100.00;97561.00;10283562;28;20041;-49
2023/06/14 19:49:39;;;;;;;14.50;8.85;;;;;;;17.68;100.00;97556.69;10284543;28;20038;-51
2023/06/14 19:54:38;;;;;;;15.77;8.90;;;;;;;17.74;100.00;97556.47;10291735;28;20057;-51
2023/06/14 19:59:37;;;;;;;12.90;7.80;;;;;;;17.74;100.00;97556.47;10290843;28;20041;-49
2023/06/14 20:04:36;;;;;;;18.25;9.38;;;;;;;17.63;100.00;97542.81;10305010;28;20138;-51
2023/06/14 20:09:35;;;;;;;17.48;10.00;;;;;;;17.67;100.00;97544.44;10290561;28;20556;-49
2023/06/14 20:14:34;;;;;;;20.00;10.75;;;;;;;17.74;100.00;97540.72;10290267;28;20496;-54
2023/06/14 20:19:33;;;;;;;24.45;13.02;;;;;;;17.68;100.00;97538.31;10289384;28;20403;-51
2023/06/14 20:24:32;;;;;;;24.77;16.20;;;;;;;17.75;100.00;97539.81;10289936;28;20034;-51
2023/06/14 20:29:31;;;;;;;26.20;18.02;;;;;;;17.80;100.00;97528.31;10289514;28;20044;-50
2023/06/14 20:34:30;;;;;;;18.38;14.38;;;;;;;17.82;100.00;97542.25;10289020;28;20038;-50
2023/06/14 20:39:29;;;;;;;21.05;13.10;;;;;;;17.77;100.00;97513.53;10287952;28;20586;-50
2023/06/14 20:44:29;;;;;;;34.83;17.52;;;;;;;17.69;100.00;97532.13;10289109;28;20080;-48
2023/06/14 20:49:28;;;;;;;32.10;17.02;;;;;;;17.44;100.00;97491.88;10287847;28;20499;-47
2023/06/14 20:54:27;;;;;;;21.65;12.15;;;;;;;17.52;100.00;97529.22;10287936;28;20716;-49
2023/06/14 20:59:25;;;;;;;22.15;10.25;;;;;;;17.32;100.00;97528.06;10288827;28;20026;-49
2023/06/14 21:04:25;;;;;;;16.75;8.40;;;;;;;17.30;100.00;97532.50;10268380;28;20749;-48
2023/06/14 21:09:24;;;;;;;15.80;8.23;;;;;;;17.23;100.00;97533.63;10287766;28;20120;-48
2023/06/14 21:14:23;;;;;;;15.70;7.97;;;;;;;17.01;100.00;97475.75;10287859;28;20036;-51
2023/06/14 21:19:22;;;;;;;20.70;9.60;;;;;;;17.29;100.00;97522.09;10287530;28;20045;-49
2023/06/14 21:24:21;;;;;;;17.70;9.10;;;;;;;17.32;100.00;97516.72;10287057;28;20034;-50
2023/06/14 21:29:20;;;;;;;17.35;9.63;;;;;;;17.31;100.00;97523.75;10287438;28;20045;-47
2023/06/14 21:34:19;;;;;;;15.55;8.80;;;;;;;17.00;100.00;97484.50;10285235;28;20053;-47
2023/06/14 21:39:20;;;;;;;17.75;8.65;;;;;;;17.19;100.00;97516.28;10286654;28;20075;-50
2023/06/14 21:44:18;;;;;;;17.38;9.35;;;;;;;17.17;100.00;97518.09;10286413;28;20120;-50
2023/06/14 21:49:17;;;;;;;15.48;8.93;;;;;;;17.25;100.00;97528.31;10288250;28;20026;-48
2023/06/14 21:54:16;;;;;;;14.57;8.50;;;;;;;17.23;100.00;97523.13;10289329;28;20044;-50
2023/06/14 21:59:15;;;;;;;14.32;9.13;;;;;;;17.17;100.00;97498.84;10289369;28;20029;-49
2023/06/14 22:04:14;;;;;;;14.43;8.77;;;;;;;17.21;100.00;97527.56;10288132;28;20467;-50
2023/06/14 22:09:14;;;;;;;12.98;8.00;;;;;;;17.09;100.00;97509.59;10287352;28;20053;-50
2023/06/14 22:14:15;;;;;;;12.68;7.78;;;;;;;17.21;100.00;97531.94;10287575;28;20065;-48
2023/06/14 22:19:15;;;;;;;13.52;7.88;;;;;;;17.22;100.00;97529.28;10286199;28;20057;-48
2023/06/14 22:24:14;;;;;;;18.10;9.15;;;;;;;17.26;100.00;97532.66;10284147;28;20053;-49
2023/06/14 22:29:16;;;;;;;16.58;9.60;;;;;;;17.20;100.00;97515.34;10287187;28;20044;-50
2023/06/14 22:34:15;;;;;;;23.45;10.68;;;;;;;17.27;100.00;97511.63;10288147;28;20061;-49
2023/06/14 22:39:14;;;;;;;20.10;10.93;;;;;;;17.29;100.00;97507.22;10287177;28;20029;-49
2023/06/14 22:44:16;;;;;;;21.70;11.60;;;;;;;17.46;100.00;97529.41;10286967;28;20073;-49
2023/06/14 22:49:16;;;;;;;18.35;10.98;;;;;;;17.51;100.00;97545.84;10284293;28;20117;-48
2023/06/14 22:54:15;;;;;;;21.50;11.60;;;;;;;17.52;100.00;97540.56;10283787;28;20480;-50
2023/06/14 22:59:17;;;;;;;21.30;10.32;;;;;;;17.49;100.00;97553.75;10283170;28;20576;-50
2023/06/14 23:04:22;;;;;;;21.95;9.43;;;;;;;17.49;100.00;97560.78;10283691;28;20572;-51
2023/06/14 23:09:21;;;;;;;14.57;8.50;;;;;;;17.52;100.00;97542.34;10283760;28;20117;-51